Springfield, AR (72157)

5:49 AM CDT on March 29, 2017 (GMT -0500)
Overcup | | Change Station

Elev 397 ft 35.22 °N, 92.68 °W | Updated 10 seconds ago

Mostly Cloudy
Mostly Cloudy
58.4 °F
Feels Like 58.4 °F
N
3.0
Wind Variable Wind from ESE

Today
High -- | Low -- °F
--% Chance of Precip.
Yesterday
High -- | Low -- °F
Precip. -- in
Pressure 29.80 in
Visibility 10.0 miles
Clouds Scattered Clouds 6000 ft
Dew Point 54 °F
Humidity 86%
Rainfall 0.00 in
Snow Depth Not available.
7:00 AM 7:29 PM
New Moon, 2% visible
METAR KRUE 290953Z AUTO 09008G15KT 070V130 10SM SCT060 15/12 A2982 RMK AO2 SLP090 T01500117 $
Pressure 29.80 in
Visibility 10.0 miles
Clouds Scattered Clouds 6000 ft
Dew Point 54 °F
Humidity 86%
Rainfall 0.00 in
Snow Depth Not available.
7:00 AM 7:29 PM
New Moon, 2% visible
METAR KRUE 290953Z AUTO 09008G15KT 070V130 10SM SCT060 15/12 A2982 RMK AO2 SLP090 T01500117 $

Get Severe Weather Alerts

Thanks for signing up!

Be on the lookout for a verification email in your inbox.

You'll start receiving the daily forecast at 8 AM.

×

10-Day Weather Forecast

Almanac

Astronomy

Mar. 29, 2017 Rise Set
Actual Time
Civil Twilight
Nautical Twilight
Astronomical Twilight
Moon
Length of Visible Light
Length of Day
Tomorrow will be .
, % of the Moon is Illuminated

Today's Extremes

State Highs State Lows

Community

WunderPhotos

Upload Photos

1,962,540 photos uploaded!

WunderBlog® & News

Nearby

Air Quality

  Air Quality AQ Index Pollutant
Not available.

Snow Depth

Station Depth Elevation

Earthquake Activity

City Distance Mag. Time & Date
Minimum magnitude displayed is 2.5.

Earthquake Activity

City Distance Mag. Time & Date
Minimum magnitude displayed is 2.5.

Coastal Water Temperatures

Place Temperature

Stations

Nearby Weather Stations

Station Location Temp. Windchill Dew Point Humidity Wind Precip. Elev Updated Type
                   

Watches & Warnings

There are currently no watches in effect.